Andrews Air Force Base
KADW : now visible

Airfield :











YOU CAN JOIN US ON...

 
LOGIN :

Register | Disclaimer

   EN    FR    IT 

 









Legend :    VFR   Marginal VFR   IFR   Intensive IFR   Very Intensive IFR
Visi :
Ceiling :
>= 8 km
>= 3000ft
5 to 8 km
1000 to 3000 ft
1500m to 5 km
500 to 1000 ft
800 to 1500m
200 to 500 ft
< 800m
< 200 ft
Symbols :   Thunderstorms  Fog  Heavy snow  Heavy precipitations  Wind > 20 kt






- Airport Elevation : 280 ft


KADW - Andrews Air Force Base

CURRENT METAR :
  • 272056Z AUTO 20010KT 10SM CLR 25/11 A2993 RMK AO2 SLP141 T02510105 57020 $

EXPIRED METARs :
  • 271956Z AUTO 19012G17KT 10SM CLR 25/10 A2994 RMK AO2 SLP144 T02540104 $
  • 271856Z AUTO 21011KT 10SM CLR 26/09 A2996 RMK AO2 SLP151 T02600093 $

TAF TAF KADW
Valid from the 27 at 17:00 until the 28 at 23:00 UTC


271700Z 2717/2823 22012KT 9999 FEW200 QNH2994INS
BECMG 2800/2801 21009KT 9999 FEW120 QNH2991INS
BECMG 2802/2803 21009KT 9999 SCT120 SCT200 520052 QNH2990INS
BECMG 2811/2812 23006KT 9999 FEW030 SCT120 BKN200 QNH2988INS
BECMG 2817/2818 26012KT 9999 -SHRA VCTS SCT030CB BKN050 QNH2985INS
TEMPO 2819/2822 28020G25KT 8000 -TSRA BKN030CB OVC050 TX26/2719Z TN16/2810Z
KZDC FIR / North America



MET'MAP, your aeronautical weather chart ! - Copyright ORBIFLY December 2007 - Disclaimer

ORBIFLY MET'MAP TEAM :

Programming & Development : Alexandra Zaïnal
Concept & original design : Baudouin d'Aumeries
Assistance for programming : Marc-Olivier Méhu
Technical & hardware support : Manuel Goepfert

Contact : metmap@orbifly.com




SOURCES & CREDITS :

   NOAA       Earth
Advisory